Terminal Aerodrome Forecast
Issued by NWS Billings, MT

Home | Current Version | Previous Version | Text Only | Print | Product List | Glossary On
Versions: 1 2 3 4 5 6 7 8 9 10 11 12 13 14 15 16 17
000
FTUS45 KBYZ 220537
TAFBIL
TAF
KBIL 220537Z 2206/2306 32005KT P6SM SCT060 BKN100
     FM221700 05007KT P6SM BKN200
     FM222100 07009KT P6SM VCTS BKN060CB=

USA.gov is the U.S. government's official web portal to all federal, state and local government web resources and services.